الصفحة الرئيسية
METAR-TAF:

METAR-TAF

مطار :

واغادوغو, بوركينا فاسو

مطار واغادوغو

دائرة عرض: 12-21N, خط طول: 001-31W, ارتفاع: 316 متر

مراقبة الطقس الحالي

تاريخ ووقت الإصدار 56 دقيقة قبل الساعة 08:00UTC
ريح 2 عقدة من الغرب/الشمال الغربي
درجة الحرارة 27°درجة مئوية
الرطوبة 66%
ضغط 1009 hPa
الرؤية: 2500 متر
غبار

METAR: DFFD 220800Z 30002KT 2500 DU NSC 27/20 Q1009 NOSIG

زمن: 08:56 (08:56 UTC)

توقعات

تاريخ ووقت الإصدار 3ساعات و 56 دقيقة قبل الساعة 05:00UTC
التوقعات صالحة من22 الساعة 06 UTC إلى 23 الساعة 12 UTC
ريح 6 عقدةمن اتجاهات متغيرة
الرؤية: 8000 متر
نظرية الاحتمالات 30% :
مؤقت
من 22 الساعة 16 UTC إلى 23 الساعة 06 UTC
غيوم قليلة على ارتفاع 2600 قدم
غيوم قليلة على ارتفاع 4000 قدم, مزنة ركامية.
عاصفة رعدية
نظرية الاحتمالات 30% :
مؤقت
من 23 الساعة 06 UTC إلى 23 الساعة 10 UTC
الرؤية: 4500 متر
العجاج

TAF: DFFD 220500Z 2206/2312 VRB06KT 8000 NSC PROB30 TEMPO 2216/2306 TS FEW026 FEW040CB PROB30 TEMPO 2306/2310 4500 HZ

أرصاد الطقس والتوقعات من أكثر من 4000 مطار (تقارير الطقس للمطار METAR والتنبؤ بالطقس بالمطارTAF).

المحطات المتاحة هي النقط الصفراء والحمراء على الخريطة.

حرك المؤشر فوق النقطة لمعرفة اسم المحطة.

ثم انقر لمعرفة أرصاد وتوقعات الطقس.

لتغيير الخارطة: اضغط على الأزرار الخضراء مع رمز الصليب الأسود للتكبير. على الزر الأخضر مع شرطة للتصغير، أو على الأسهم الخضراء للخرائط المجاورة.


METAR-TAF: